Time;durP1;ratioP1;P1;durP2;ratioP2;P2;SDS_P1;SDS_P2;PMS_P1;PMS_P2;Temp;Humidity;BMP_temperature;BMP_pressure;BME280_temperature;BME280_humidity;BME280_pressure;Samples;Min_cycle;Max_cycle;Signal;HPM_P1;HPM_P2
2022/05/27 00:01:38;;;;;;;3.22;1.40;;;;;;;;;;4975992;28;20035;-76
2022/05/27 00:04:05;;;;;;;3.55;1.30;;;;;;;;;;4975588;28;20019;-76
2022/05/27 00:06:32;;;;;;;4.15;1.55;;;;;;;;;;4976099;28;20023;-76
2022/05/27 00:08:58;;;;;;;2.83;1.08;;;;;;;;;;4975906;28;20025;-77
2022/05/27 00:11:25;;;;;;;2.95;1.10;;;;;;;;;;4976533;28;20515;-76
2022/05/27 00:13:51;;;;;;;2.15;1.27;;;;;;;;;;4975598;28;20023;-77
2022/05/27 00:16:18;;;;;;;4.07;1.35;;;;;;;;;;4975704;28;20019;-76
2022/05/27 00:18:45;;;;;;;2.42;1.27;;;;;;;;;;4975219;28;20038;-76
2022/05/27 00:21:11;;;;;;;4.35;1.30;;;;;;;;;;4975818;28;20045;-76
2022/05/27 00:23:38;;;;;;;1.95;1.30;;;;;;;;;;4975892;28;20431;-76
2022/05/27 00:26:05;;;;;;;3.63;1.10;;;;;;;;;;4970622;28;20054;-77
2022/05/27 00:28:32;;;;;;;2.85;1.30;;;;;;;;;;4971285;28;20027;-76
2022/05/27 00:30:58;;;;;;;3.75;1.20;;;;;;;;;;4971076;28;20035;-76
2022/05/27 00:33:24;;;;;;;4.95;1.33;;;;;;;;;;4972172;28;20023;-76
2022/05/27 00:35:51;;;;;;;3.97;1.48;;;;;;;;;;4974810;28;20030;-76
2022/05/27 00:38:18;;;;;;;2.65;1.17;;;;;;;;;;4971786;28;20033;-76
2022/05/27 00:40:49;;;;;;;1.95;1.20;;;;;;;;;;4971141;28;20027;-76
2022/05/27 00:43:16;;;;;;;1.65;1.08;;;;;;;;;;4970981;28;20027;-76
2022/05/27 00:45:43;;;;;;;1.80;1.15;;;;;;;;;;4971073;28;20043;-77
2022/05/27 00:48:18;;;;;;;3.40;1.23;;;;;;;;;;4973660;28;20532;-76
2022/05/27 00:50:46;;;;;;;1.90;0.90;;;;;;;;;;4973257;28;20037;-76
2022/05/27 00:53:16;;;;;;;2.72;1.40;;;;;;;;;;4971347;28;20029;-76
2022/05/27 00:55:45;;;;;;;3.85;1.48;;;;;;;;;;4972569;28;20537;-76
2022/05/27 00:58:18;;;;;;;3.83;1.35;;;;;;;;;;4975296;28;20037;-76
2022/05/27 01:00:44;;;;;;;1.52;1.13;;;;;;;;;;4975152;28;20023;-77
2022/05/27 01:03:13;;;;;;;2.75;1.40;;;;;;;;;;4974524;28;20023;-76
2022/05/27 01:05:41;;;;;;;2.92;1.30;;;;;;;;;;4974942;28;20538;-77
2022/05/27 01:08:08;;;;;;;2.80;1.40;;;;;;;;;;4975124;28;20027;-76
2022/05/27 01:10:46;;;;;;;6.80;1.30;;;;;;;;;;4974536;28;20037;-76
2022/05/27 01:13:29;;;;;;;3.30;1.20;;;;;;;;;;4974629;28;20035;-76
2022/05/27 01:16:14;;;;;;;3.58;1.60;;;;;;;;;;4974469;28;20022;-77
2022/05/27 01:22:02;;;;;;;2.10;1.40;;;;;;;;;;4974847;28;20023;-76
2022/05/27 01:24:28;;;;;;;2.03;1.48;;;;;;;;;;4974738;28;20037;-76
2022/05/27 01:27:00;;;;;;;2.92;1.38;;;;;;;;;;4974650;28;22236;-77
2022/05/27 01:29:54;;;;;;;6.65;2.03;;;;;;;;;;4974858;28;20383;-76
2022/05/27 01:32:31;;;;;;;2.88;1.60;;;;;;;;;;4973925;28;20033;-76
2022/05/27 01:35:14;;;;;;;3.50;1.63;;;;;;;;;;4970131;28;20506;-76
2022/05/27 01:37:46;;;;;;;2.85;1.50;;;;;;;;;;4970015;28;20027;-77
2022/05/27 01:40:19;;;;;;;4.47;1.70;;;;;;;;;;4974134;28;20022;-76
2022/05/27 01:42:57;;;;;;;1.80;1.38;;;;;;;;;;4973982;28;20042;-77
2022/05/27 01:45:35;;;;;;;5.97;1.70;;;;;;;;;;4973792;28;20033;-76
2022/05/27 01:48:09;;;;;;;6.07;1.25;;;;;;;;;;4958651;28;20039;-76
2022/05/27 01:50:43;;;;;;;5.18;1.55;;;;;;;;;;4970970;28;20027;-76
2022/05/27 01:53:14;;;;;;;2.05;1.40;;;;;;;;;;4969783;28;20047;-76
2022/05/27 01:55:43;;;;;;;4.88;1.70;;;;;;;;;;4971358;28;20030;-77
2022/05/27 01:58:20;;;;;;;2.97;1.25;;;;;;;;;;4973811;28;20027;-77
2022/05/27 02:00:48;;;;;;;3.00;1.42;;;;;;;;;;4973289;28;20023;-76
2022/05/27 02:03:20;;;;;;;2.13;1.60;;;;;;;;;;4973246;28;20033;-76
2022/05/27 02:05:56;;;;;;;2.08;1.48;;;;;;;;;;4973886;28;20055;-77
2022/05/27 02:08:24;;;;;;;5.45;1.83;;;;;;;;;;4974351;28;20042;-77
2022/05/27 02:10:54;;;;;;;2.78;1.50;;;;;;;;;;4973603;28;20033;-77
2022/05/27 02:13:27;;;;;;;2.53;1.27;;;;;;;;;;4973854;28;20019;-76
2022/05/27 02:15:54;;;;;;;2.42;1.85;;;;;;;;;;4973077;28;20377;-76
2022/05/27 02:18:40;;;;;;;3.90;1.65;;;;;;;;;;4973531;28;20031;-77
2022/05/27 02:21:13;;;;;;;1.70;1.50;;;;;;;;;;4958312;28;20050;-76
2022/05/27 02:23:41;;;;;;;2.35;1.60;;;;;;;;;;4970859;28;20057;-77
2022/05/27 02:26:11;;;;;;;3.63;1.95;;;;;;;;;;4969557;28;20058;-76
2022/05/27 02:28:39;;;;;;;3.55;1.92;;;;;;;;;;4968654;28;20503;-77
2022/05/27 02:31:08;;;;;;;4.25;1.70;;;;;;;;;;4969118;28;20037;-76
2022/05/27 02:36:26;;;;;;;2.17;1.90;;;;;;;;;;4958264;28;20033;-76
2022/05/27 02:38:52;;;;;;;2.90;1.80;;;;;;;;;;4972140;28;20035;-76
2022/05/27 02:41:24;;;;;;;4.55;1.73;;;;;;;;;;4969340;28;20049;-76
2022/05/27 02:44:03;;;;;;;2.42;1.60;;;;;;;;;;4968461;28;20011;-76
2022/05/27 02:46:29;;;;;;;3.90;1.80;;;;;;;;;;4968453;28;20409;-77
2022/05/27 02:49:00;;;;;;;3.33;1.60;;;;;;;;;;4968754;28;20035;-77
2022/05/27 02:51:36;;;;;;;2.17;1.52;;;;;;;;;;4969788;28;20038;-76
2022/05/27 02:54:21;;;;;;;2.15;1.73;;;;;;;;;;4957657;28;20030;-77
2022/05/27 02:56:48;;;;;;;3.63;1.70;;;;;;;;;;4971097;28;20033;-76
2022/05/27 02:59:17;;;;;;;3.08;1.80;;;;;;;;;;4973173;28;20035;-76
2022/05/27 03:01:45;;;;;;;3.72;1.63;;;;;;;;;;4972722;28;20038;-76
2022/05/27 03:04:11;;;;;;;4.55;1.52;;;;;;;;;;4972925;28;20033;-76
2022/05/27 03:06:43;;;;;;;3.53;2.03;;;;;;;;;;4972577;28;20029;-76
2022/05/27 03:09:13;;;;;;;3.72;1.80;;;;;;;;;;4972983;28;20018;-77
2022/05/27 03:11:49;;;;;;;3.33;1.80;;;;;;;;;;4973237;28;20023;-76
2022/05/27 03:14:35;;;;;;;3.75;1.73;;;;;;;;;;4971552;28;20277;-76
2022/05/27 03:17:20;;;;;;;5.25;1.92;;;;;;;;;;4971974;28;20484;-76
2022/05/27 03:20:05;;;;;;;3.83;1.77;;;;;;;;;;4972388;28;20038;-76
2022/05/27 03:22:31;;;;;;;4.13;1.92;;;;;;;;;;4972497;28;20031;-74
2022/05/27 03:25:19;;;;;;;5.07;1.98;;;;;;;;;;4972558;28;20496;-76
2022/05/27 03:27:52;;;;;;;9.35;2.15;;;;;;;;;;4966662;28;20419;-77
2022/05/27 03:30:20;;;;;;;4.07;2.22;;;;;;;;;;4970414;28;20011;-76
2022/05/27 03:33:06;;;;;;;7.35;2.30;;;;;;;;;;4970711;28;20023;-76
2022/05/27 03:35:35;;;;;;;4.72;2.20;;;;;;;;;;4969652;28;20027;-76
2022/05/27 03:38:05;;;;;;;4.38;2.00;;;;;;;;;;4972412;28;20039;-76
2022/05/27 03:40:35;;;;;;;10.35;2.08;;;;;;;;;;4972398;28;20029;-76
2022/05/27 03:43:02;;;;;;;3.42;1.80;;;;;;;;;;4972052;28;20061;-76
2022/05/27 03:45:29;;;;;;;4.28;2.47;;;;;;;;;;4972278;28;20377;-77
2022/05/27 03:47:55;;;;;;;4.43;2.10;;;;;;;;;;4972159;28;20065;-77
2022/05/27 03:50:25;;;;;;;3.58;2.15;;;;;;;;;;4973746;28;20023;-76
2022/05/27 03:52:53;;;;;;;2.47;1.73;;;;;;;;;;4971670;28;20514;-76
2022/05/27 03:55:21;;;;;;;2.45;1.70;;;;;;;;;;4971694;28;20030;-77
2022/05/27 03:57:48;;;;;;;2.92;1.48;;;;;;;;;;4972084;28;20033;-76
2022/05/27 04:00:15;;;;;;;4.57;1.60;;;;;;;;;;4972237;28;20041;-77
2022/05/27 04:02:42;;;;;;;4.88;1.70;;;;;;;;;;4972099;28;20041;-77
2022/05/27 04:05:10;;;;;;;4.05;1.67;;;;;;;;;;4972751;28;20027;-76
2022/05/27 04:07:37;;;;;;;3.80;1.70;;;;;;;;;;4972048;28;20025;-76
2022/05/27 04:10:03;;;;;;;3.10;1.67;;;;;;;;;;4971941;28;20023;-76
2022/05/27 04:12:30;;;;;;;10.88;1.85;;;;;;;;;;4972355;28;20017;-77
2022/05/27 04:14:56;;;;;;;2.40;1.65;;;;;;;;;;4972094;28;20030;-76
2022/05/27 04:17:30;;;;;;;3.30;1.60;;;;;;;;;;4972388;28;20041;-76
2022/05/27 04:19:57;;;;;;;4.63;1.92;;;;;;;;;;4971871;28;20019;-77
2022/05/27 04:22:24;;;;;;;6.25;1.67;;;;;;;;;;4971910;28;20041;-76
2022/05/27 04:24:50;;;;;;;3.47;1.75;;;;;;;;;;4971577;28;20029;-76
2022/05/27 04:27:17;;;;;;;4.80;1.85;;;;;;;;;;4973587;28;20023;-76
2022/05/27 04:29:45;;;;;;;6.30;1.58;;;;;;;;;;4976188;28;20026;-77
2022/05/27 04:32:12;;;;;;;1.77;1.30;;;;;;;;;;4975846;28;20034;-77
2022/05/27 04:34:38;;;;;;;3.80;1.75;;;;;;;;;;4975341;28;20027;-76
2022/05/27 04:37:05;;;;;;;6.55;1.80;;;;;;;;;;4973926;28;20033;-76
2022/05/27 04:39:31;;;;;;;4.45;2.17;;;;;;;;;;4975567;28;20033;-76
2022/05/27 04:41:58;;;;;;;3.75;1.85;;;;;;;;;;4975315;28;20037;-76
2022/05/27 04:44:24;;;;;;;6.80;2.10;;;;;;;;;;4976214;28;20019;-76
2022/05/27 04:46:50;;;;;;;3.90;1.40;;;;;;;;;;4975458;28;20052;-76
2022/05/27 04:52:02;;;;;;;7.40;1.77;;;;;;;;;;4975490;28;20018;-76
2022/05/27 04:54:28;;;;;;;5.38;2.00;;;;;;;;;;4974725;28;20022;-76
2022/05/27 04:56:55;;;;;;;3.67;1.50;;;;;;;;;;4975101;28;20033;-76
2022/05/27 04:59:22;;;;;;;3.05;1.73;;;;;;;;;;4975428;28;20369;-76
2022/05/27 05:01:48;;;;;;;4.40;2.03;;;;;;;;;;4974773;28;20510;-77
2022/05/27 05:04:15;;;;;;;5.72;1.52;;;;;;;;;;4974903;28;20035;-76
2022/05/27 05:06:41;;;;;;;4.57;1.70;;;;;;;;;;4974710;28;20027;-77
2022/05/27 05:09:08;;;;;;;3.17;1.77;;;;;;;;;;4974391;28;20030;-77
2022/05/27 05:11:35;;;;;;;4.32;1.63;;;;;;;;;;4975629;28;20030;-76
2022/05/27 05:14:01;;;;;;;3.92;1.83;;;;;;;;;;4974870;28;20037;-76
2022/05/27 05:16:28;;;;;;;6.13;1.65;;;;;;;;;;4974958;28;20027;-76
2022/05/27 05:18:54;;;;;;;5.03;1.52;;;;;;;;;;4974677;28;20403;-77
2022/05/27 05:21:20;;;;;;;2.80;1.98;;;;;;;;;;4974580;28;20038;-77
2022/05/27 05:23:47;;;;;;;2.80;1.58;;;;;;;;;;4974606;28;20435;-74
2022/05/27 05:26:13;;;;;;;2.00;1.70;;;;;;;;;;4973073;28;20387;-76
2022/05/27 05:28:40;;;;;;;4.88;1.45;;;;;;;;;;4975000;28;20027;-77
2022/05/27 05:31:08;;;;;;;4.38;1.73;;;;;;;;;;4974463;28;20031;-76
2022/05/27 05:33:34;;;;;;;2.70;1.70;;;;;;;;;;4974643;28;20027;-76
2022/05/27 05:36:00;;;;;;;5.90;1.50;;;;;;;;;;4974748;28;20029;-77
2022/05/27 05:38:27;;;;;;;3.13;1.75;;;;;;;;;;4973729;28;20094;-76
2022/05/27 05:40:54;;;;;;;3.08;1.48;;;;;;;;;;4974823;28;20026;-76
2022/05/27 05:43:21;;;;;;;7.38;1.90;;;;;;;;;;4974778;28;20037;-76
2022/05/27 05:45:47;;;;;;;3.45;2.00;;;;;;;;;;4974134;28;20468;-77
2022/05/27 05:48:13;;;;;;;3.78;2.20;;;;;;;;;;4974056;28;20536;-76
2022/05/27 05:50:40;;;;;;;6.65;2.13;;;;;;;;;;4974440;28;20023;-76
2022/05/27 05:53:06;;;;;;;5.22;2.00;;;;;;;;;;4976911;28;20416;-76
2022/05/27 05:55:35;;;;;;;5.63;2.30;;;;;;;;;;4970582;28;20019;-77
2022/05/27 05:58:03;;;;;;;6.43;2.15;;;;;;;;;;4973951;28;20022;-76
2022/05/27 06:00:29;;;;;;;3.63;1.85;;;;;;;;;;4974040;28;20026;-77
2022/05/27 06:02:56;;;;;;;4.55;2.30;;;;;;;;;;4973947;28;20443;-76
2022/05/27 06:05:23;;;;;;;4.18;1.98;;;;;;;;;;4974412;28;20033;-77
2022/05/27 06:07:51;;;;;;;2.53;1.77;;;;;;;;;;4973410;28;20034;-77
2022/05/27 06:10:19;;;;;;;4.72;2.08;;;;;;;;;;4973720;28;20026;-77
2022/05/27 06:12:46;;;;;;;3.78;1.70;;;;;;;;;;4973839;28;20124;-76
2022/05/27 06:15:13;;;;;;;2.55;1.52;;;;;;;;;;4973530;28;20399;-76
2022/05/27 06:17:39;;;;;;;3.53;1.60;;;;;;;;;;4973983;28;20027;-76
2022/05/27 06:20:06;;;;;;;4.13;1.90;;;;;;;;;;4976859;28;20037;-76
2022/05/27 06:22:33;;;;;;;4.15;1.88;;;;;;;;;;4969829;28;20030;-77
2022/05/27 06:24:59;;;;;;;2.72;1.77;;;;;;;;;;4973272;28;20029;-77
2022/05/27 06:27:26;;;;;;;3.90;1.58;;;;;;;;;;4973541;28;20404;-76
2022/05/27 06:35:22;;;;;;;3.30;1.67;;;;;;;;;;4973431;28;20027;-76
2022/05/27 06:37:49;;;;;;;2.28;1.60;;;;;;;;;;4973266;28;20041;-76
2022/05/27 06:40:16;;;;;;;4.28;1.40;;;;;;;;;;4973281;28;20436;-77
2022/05/27 06:42:42;;;;;;;2.45;1.50;;;;;;;;;;4972999;28;20800;-76
2022/05/27 06:45:13;;;;;;;4.28;1.60;;;;;;;;;;4973112;28;20510;-78
2022/05/27 06:47:39;;;;;;;2.83;1.42;;;;;;;;;;4972080;28;20050;-77
2022/05/27 06:50:07;;;;;;;2.78;1.30;;;;;;;;;;4973117;28;20022;-77
2022/05/27 06:52:33;;;;;;;3.60;1.25;;;;;;;;;;4973013;28;20037;-77
2022/05/27 06:55:00;;;;;;;5.75;1.30;;;;;;;;;;4972745;28;20029;-77
2022/05/27 06:57:26;;;;;;;6.15;1.40;;;;;;;;;;4972987;28;20058;-76
2022/05/27 06:59:52;;;;;;;2.25;1.20;;;;;;;;;;4973091;28;20038;-76
2022/05/27 07:02:19;;;;;;;5.32;1.20;;;;;;;;;;4973596;28;20041;-76
2022/05/27 07:04:46;;;;;;;3.10;1.35;;;;;;;;;;4972274;28;20022;-76
2022/05/27 07:07:12;;;;;;;4.72;1.40;;;;;;;;;;4972864;28;20042;-76
2022/05/27 07:09:39;;;;;;;3.65;1.33;;;;;;;;;;4973094;28;20025;-76
2022/05/27 07:12:07;;;;;;;3.65;1.30;;;;;;;;;;4972728;28;20033;-76
2022/05/27 07:14:33;;;;;;;3.95;1.35;;;;;;;;;;4972816;28;20049;-76
2022/05/27 07:17:00;;;;;;;2.85;1.20;;;;;;;;;;4972420;28;20512;-77
2022/05/27 07:19:27;;;;;;;3.25;1.17;;;;;;;;;;4972135;28;20023;-76
2022/05/27 07:21:56;;;;;;;3.38;1.30;;;;;;;;;;4972343;28;20080;-76
2022/05/27 07:24:22;;;;;;;3.63;1.38;;;;;;;;;;4972680;28;20565;-76
2022/05/27 07:26:49;;;;;;;9.60;1.58;;;;;;;;;;4972590;28;20030;-76
2022/05/27 07:29:15;;;;;;;2.25;1.10;;;;;;;;;;4972787;28;20026;-77
2022/05/27 07:31:43;;;;;;;3.55;1.10;;;;;;;;;;4972556;28;20041;-76
2022/05/27 07:34:09;;;;;;;3.35;1.00;;;;;;;;;;4971990;28;20023;-76
2022/05/27 07:36:36;;;;;;;3.67;1.30;;;;;;;;;;4972186;28;20496;-76
2022/05/27 07:39:03;;;;;;;3.78;1.20;;;;;;;;;;4971217;28;20399;-76
2022/05/27 07:41:30;;;;;;;1.23;1.02;;;;;;;;;;4968940;28;20424;-76
2022/05/27 07:43:59;;;;;;;2.22;1.33;;;;;;;;;;4967884;28;20441;-73
2022/05/27 07:46:26;;;;;;;2.53;1.00;;;;;;;;;;4967777;28;20025;-74
2022/05/27 07:48:52;;;;;;;2.15;1.10;;;;;;;;;;4967681;28;20032;-74
2022/05/27 07:51:19;;;;;;;4.07;1.10;;;;;;;;;;4970105;28;20023;-74
2022/05/27 07:53:45;;;;;;;2.03;1.10;;;;;;;;;;4970351;28;20038;-74
2022/05/27 07:56:12;;;;;;;6.03;1.02;;;;;;;;;;4968296;28;20041;-73
2022/05/27 07:58:38;;;;;;;5.32;0.98;;;;;;;;;;4967846;28;20477;-73
2022/05/27 08:01:06;;;;;;;2.25;0.95;;;;;;;;;;4968052;28;20057;-74
2022/05/27 08:03:32;;;;;;;3.80;1.35;;;;;;;;;;4971805;28;20063;-73
2022/05/27 08:06:00;;;;;;;2.00;1.15;;;;;;;;;;4975638;28;20042;-74
2022/05/27 08:08:29;;;;;;;3.38;1.20;;;;;;;;;;4972142;28;20034;-74
2022/05/27 08:10:55;;;;;;;3.15;0.95;;;;;;;;;;4975813;28;20045;-73
2022/05/27 08:13:22;;;;;;;2.85;1.20;;;;;;;;;;4975703;28;20413;-73
2022/05/27 08:15:48;;;;;;;2.83;1.10;;;;;;;;;;4975572;28;20403;-73
2022/05/27 08:18:15;;;;;;;3.85;1.00;;;;;;;;;;4975489;28;20399;-73
2022/05/27 08:20:41;;;;;;;3.88;1.27;;;;;;;;;;4976006;28;20093;-73
2022/05/27 08:23:07;;;;;;;5.63;1.20;;;;;;;;;;4975987;28;20034;-73
2022/05/27 08:25:35;;;;;;;3.85;1.20;;;;;;;;;;4975391;28;20500;-73
2022/05/27 08:28:03;;;;;;;2.58;1.30;;;;;;;;;;4975290;28;20037;-73
2022/05/27 08:30:31;;;;;;;3.63;1.10;;;;;;;;;;4975882;28;20033;-73
2022/05/27 08:32:58;;;;;;;3.13;0.85;;;;;;;;;;4975063;28;20538;-73
2022/05/27 08:38:11;;;;;;;2.08;1.20;;;;;;;;;;4971247;28;20023;-73
2022/05/27 08:41:04;;;;;;;2.22;1.20;;;;;;;;;;4971176;28;20033;-73
2022/05/27 08:43:30;;;;;;;4.88;1.15;;;;;;;;;;4971112;28;20022;-73
2022/05/27 08:45:59;;;;;;;3.88;1.20;;;;;;;;;;4970783;28;20041;-73
2022/05/27 08:48:27;;;;;;;2.28;1.17;;;;;;;;;;4975311;28;20042;-73
2022/05/27 08:50:57;;;;;;;5.15;1.48;;;;;;;;;;4975423;28;20451;-74
2022/05/27 08:53:23;;;;;;;4.82;1.30;;;;;;;;;;4975593;28;20046;-73
2022/05/27 09:01:34;;;;;;;1.38;0.95;;;;;;;;;;4974601;28;20053;-74
2022/05/27 09:04:10;;;;;;;4.55;1.10;;;;;;;;;;4974724;28;20407;-73
2022/05/27 09:06:40;;;;;;;2.28;0.90;;;;;;;;;;4975203;28;20396;-73
2022/05/27 09:09:07;;;;;;;1.90;1.10;;;;;;;;;;4975572;28;20023;-74
2022/05/27 09:11:45;;;;;;;1.55;1.10;;;;;;;;;;4971436;28;20041;-73
2022/05/27 09:14:12;;;;;;;3.97;1.00;;;;;;;;;;4969794;28;20027;-73
2022/05/27 09:16:44;;;;;;;2.33;1.10;;;;;;;;;;4970443;28;20029;-73
2022/05/27 09:19:10;;;;;;;2.50;1.02;;;;;;;;;;4970393;28;20030;-75
2022/05/27 09:21:42;;;;;;;2.28;1.00;;;;;;;;;;4970694;28;20038;-73
2022/05/27 09:24:22;;;;;;;1.17;0.95;;;;;;;;;;4973799;28;20019;-74
2022/05/27 09:27:05;;;;;;;5.10;0.98;;;;;;;;;;4973092;28;20492;-73
2022/05/27 09:29:34;;;;;;;6.43;1.10;;;;;;;;;;4970811;28;20134;-73
2022/05/27 09:32:14;;;;;;;2.55;0.75;;;;;;;;;;4974052;28;20046;-74
2022/05/27 09:34:43;;;;;;;1.58;1.10;;;;;;;;;;4974510;28;20041;-73
2022/05/27 09:37:11;;;;;;;1.77;1.10;;;;;;;;;;4974208;28;20023;-73
2022/05/27 09:39:37;;;;;;;6.50;1.42;;;;;;;;;;4974478;28;20473;-73
2022/05/27 09:42:13;;;;;;;3.50;1.20;;;;;;;;;;4974208;28;20523;-73
2022/05/27 09:44:43;;;;;;;2.50;1.33;;;;;;;;;;4974021;28;20030;-73
2022/05/27 09:47:09;;;;;;;2.15;0.95;;;;;;;;;;4974739;28;20045;-74
2022/05/27 09:49:35;;;;;;;3.75;1.10;;;;;;;;;;4974473;28;20513;-73
2022/05/27 09:52:03;;;;;;;2.05;1.40;;;;;;;;;;4974141;28;20093;-73
2022/05/27 09:54:38;;;;;;;3.90;1.50;;;;;;;;;;4974026;28;20033;-74
2022/05/27 09:57:10;;;;;;;1.92;1.30;;;;;;;;;;4959062;28;20027;-73
2022/05/27 09:59:38;;;;;;;3.40;1.20;;;;;;;;;;4970730;28;20435;-73
2022/05/27 10:02:23;;;;;;;4.00;1.25;;;;;;;;;;4968775;28;20046;-73
2022/05/27 10:04:58;;;;;;;1.48;1.13;;;;;;;;;;4969502;28;20045;-73
2022/05/27 10:07:25;;;;;;;2.70;1.48;;;;;;;;;;4973756;28;20498;-73
2022/05/27 10:09:51;;;;;;;2.92;1.60;;;;;;;;;;4974119;28;20476;-73
2022/05/27 10:12:28;;;;;;;2.70;1.33;;;;;;;;;;4973438;28;20524;-73
2022/05/27 10:14:55;;;;;;;2.25;1.40;;;;;;;;;;4974245;28;20022;-74
2022/05/27 10:17:48;;;;;;;3.58;1.50;;;;;;;;;;4974334;28;20026;-74
2022/05/27 10:20:22;;;;;;;2.92;1.65;;;;;;;;;;4972838;28;20047;-73
2022/05/27 10:23:00;;;;;;;3.88;1.20;;;;;;;;;;4973842;28;20030;-74
2022/05/27 10:25:32;;;;;;;1.60;1.20;;;;;;;;;;4973185;28;20026;-74
2022/05/27 10:27:58;;;;;;;3.13;1.20;;;;;;;;;;4973151;28;20035;-74
2022/05/27 10:30:27;;;;;;;3.30;1.00;;;;;;;;;;4973583;28;20093;-73
2022/05/27 10:32:53;;;;;;;;;;;;;;;;;;4973837;28;20046;-74
2022/05/27 10:35:32;;;;;;;4.45;1.10;;;;;;;;;;4973859;28;19905;-73
2022/05/27 10:38:10;;;;;;;3.53;1.30;;;;;;;;;;4973466;28;20030;-74
2022/05/27 10:40:42;;;;;;;3.22;1.25;;;;;;;;;;4973075;28;20015;-74
2022/05/27 10:43:29;;;;;;;1.52;0.90;;;;;;;;;;4973052;28;20022;-74
2022/05/27 10:45:55;;;;;;;1.15;0.90;;;;;;;;;;4972881;28;20031;-74
2022/05/27 10:48:32;;;;;;;1.30;1.08;;;;;;;;;;4973207;28;20097;-73
2022/05/27 10:51:10;;;;;;;4.15;1.08;;;;;;;;;;4973649;28;20035;-74
2022/05/27 10:53:48;;;;;;;2.63;1.20;;;;;;;;;;4970048;28;20046;-73
2022/05/27 10:56:24;;;;;;;2.45;1.10;;;;;;;;;;4969092;28;20023;-74
2022/05/27 11:05:03;;;;;;;2.33;1.00;;;;;;;;;;4938203;29;20039;-73
2022/05/27 11:07:41;;;;;;;1.75;1.00;;;;;;;;;;4936661;28;20043;-73
2022/05/27 11:10:25;;;;;;;3.00;1.02;;;;;;;;;;4936606;29;20547;-73
2022/05/27 11:15:58;;;;;;;3.17;1.10;;;;;;;;;;4946187;29;20043;-73
2022/05/27 11:18:24;;;;;;;1.20;1.00;;;;;;;;;;4935078;29;20043;-73
2022/05/27 11:21:20;;;;;;;3.78;1.10;;;;;;;;;;4933610;29;20044;-73
2022/05/27 11:24:05;;;;;;;2.03;1.10;;;;;;;;;;4914973;28;20138;-73
2022/05/27 11:26:36;;;;;;;1.52;1.17;;;;;;;;;;4924318;29;20046;-73
2022/05/27 11:29:02;;;;;;;1.67;1.10;;;;;;;;;;4917742;29;20505;-74
2022/05/27 11:31:30;;;;;;;2.55;1.17;;;;;;;;;;4917455;29;20039;-73
2022/05/27 11:34:15;;;;;;;2.88;1.08;;;;;;;;;;4917355;29;20048;-74
2022/05/27 11:36:59;;;;;;;2.88;1.20;;;;;;;;;;4917915;29;20071;-73
2022/05/27 11:39:35;;;;;;;2.47;1.20;;;;;;;;;;4926057;28;20037;-74
2022/05/27 11:42:10;;;;;;;1.90;1.13;;;;;;;;;;4959249;28;20023;-73
2022/05/27 11:44:54;;;;;;;2.40;1.20;;;;;;;;;;4961879;28;20073;-73
2022/05/27 11:47:46;;;;;;;2.30;1.25;;;;;;;;;;4979044;28;20051;-73
2022/05/27 11:50:27;;;;;;;3.42;1.10;;;;;;;;;;4978712;28;20053;-73
2022/05/27 11:53:00;;;;;;;1.42;1.00;;;;;;;;;;4978476;28;20150;-73
2022/05/27 11:55:26;;;;;;;1.58;1.08;;;;;;;;;;4978234;28;20027;-74
2022/05/27 11:58:11;;;;;;;1.15;1.00;;;;;;;;;;4978252;28;20130;-73
2022/05/27 12:00:40;;;;;;;2.05;1.10;;;;;;;;;;4975274;28;20504;-73
2022/05/27 12:03:25;;;;;;;1.10;1.00;;;;;;;;;;4976425;28;20027;-73
2022/05/27 12:05:55;;;;;;;1.60;1.00;;;;;;;;;;4976145;28;20030;-73
2022/05/27 12:08:21;;;;;;;;;;;;;;;;;;4977062;28;20371;-73
2022/05/27 12:10:48;;;;;;;1.52;1.00;;;;;;;;;;4976165;28;19906;-73
2022/05/27 12:13:15;;;;;;;6.07;1.05;;;;;;;;;;4976161;28;20038;-73
2022/05/27 12:15:52;;;;;;;1.10;1.00;;;;;;;;;;4976142;28;20019;-73
2022/05/27 12:18:42;;;;;;;2.38;1.08;;;;;;;;;;4975926;28;20026;-73
2022/05/27 12:21:11;;;;;;;2.15;0.93;;;;;;;;;;4978752;28;20573;-73
2022/05/27 12:23:41;;;;;;;0.87;0.87;;;;;;;;;;4996186;28;20042;-73
2022/05/27 12:26:07;;;;;;;2.50;0.98;;;;;;;;;;5005040;28;20044;-73
2022/05/27 12:28:35;;;;;;;4.03;0.90;;;;;;;;;;5003953;28;20021;-73
2022/05/27 12:31:01;;;;;;;2.70;0.90;;;;;;;;;;5003896;28;20068;-73
2022/05/27 12:33:29;;;;;;;2.42;1.05;;;;;;;;;;5004992;28;20054;-73
2022/05/27 12:35:59;;;;;;;4.07;1.25;;;;;;;;;;5008516;28;20022;-74
2022/05/27 12:38:25;;;;;;;2.15;0.98;;;;;;;;;;5007528;28;20040;-73
2022/05/27 12:40:53;;;;;;;2.25;1.00;;;;;;;;;;5003761;28;20036;-73
2022/05/27 12:43:22;;;;;;;5.10;1.13;;;;;;;;;;4988693;28;20026;-73
2022/05/27 12:45:50;;;;;;;4.43;1.58;;;;;;;;;;4994105;28;20042;-74
2022/05/27 12:48:26;;;;;;;1.80;0.90;;;;;;;;;;5006430;28;20443;-73
2022/05/27 12:50:57;;;;;;;1.35;0.80;;;;;;;;;;5008876;28;20046;-73
2022/05/27 12:53:35;;;;;;;2.28;0.80;;;;;;;;;;5007199;28;20160;-73
2022/05/27 13:02:15;;;;;;;3.95;1.00;;;;;;;;;;4952205;29;20027;-73
2022/05/27 13:04:46;;;;;;;3.28;1.08;;;;;;;;;;4951249;28;20027;-73
2022/05/27 13:07:13;;;;;;;1.42;0.90;;;;;;;;;;4952705;28;20049;-73
2022/05/27 13:09:42;;;;;;;3.47;1.10;;;;;;;;;;4956012;28;20025;-73
2022/05/27 13:12:11;;;;;;;1.75;0.95;;;;;;;;;;4955787;28;20089;-73
2022/05/27 13:14:41;;;;;;;2.23;1.00;;;;;;;;;;4955972;28;20020;-73
2022/05/27 13:17:26;;;;;;;2.35;1.00;;;;;;;;;;4956009;28;20061;-73
2022/05/27 13:19:59;;;;;;;4.63;1.00;;;;;;;;;;4955188;28;20020;-73
2022/05/27 13:22:33;;;;;;;4.60;1.00;;;;;;;;;;4955249;28;20440;-73
2022/05/27 13:25:18;;;;;;;2.65;0.80;;;;;;;;;;4955314;28;20022;-73
2022/05/27 13:27:46;;;;;;;1.10;1.00;;;;;;;;;;4955570;28;20078;-74
2022/05/27 13:30:14;;;;;;;4.13;1.10;;;;;;;;;;4955428;29;20029;-73
2022/05/27 13:32:57;;;;;;;3.55;0.90;;;;;;;;;;4955572;28;20070;-73
2022/05/27 13:35:24;;;;;;;1.27;0.82;;;;;;;;;;4955153;28;20495;-73
2022/05/27 13:37:55;;;;;;;1.38;0.90;;;;;;;;;;4955058;28;20046;-73
2022/05/27 13:40:24;;;;;;;2.75;0.82;;;;;;;;;;4954992;29;20018;-73
2022/05/27 13:42:55;;;;;;;1.50;0.85;;;;;;;;;;4955140;28;20045;-76
2022/05/27 13:45:22;;;;;;;1.38;0.98;;;;;;;;;;4954965;28;20025;-73
2022/05/27 13:47:55;;;;;;;3.33;1.83;;;;;;;;;;4968403;28;20055;-73
2022/05/27 13:50:25;;;;;;;3.72;1.17;;;;;;;;;;4974471;28;20034;-73
2022/05/27 13:52:52;;;;;;;3.35;0.85;;;;;;;;;;4973100;28;20102;-74
2022/05/27 13:55:24;;;;;;;3.17;0.90;;;;;;;;;;4968932;28;20027;-73
2022/05/27 13:57:50;;;;;;;2.05;0.80;;;;;;;;;;4969896;28;20034;-73
2022/05/27 14:00:18;;;;;;;1.27;0.80;;;;;;;;;;4973521;28;20022;-73
2022/05/27 14:02:49;;;;;;;2.13;0.90;;;;;;;;;;4974607;28;20027;-73
2022/05/27 14:05:26;;;;;;;1.95;0.98;;;;;;;;;;4972125;28;20031;-76
2022/05/27 14:07:55;;;;;;;1.30;1.00;;;;;;;;;;4973816;28;20034;-73
2022/05/27 14:10:27;;;;;;;1.58;0.90;;;;;;;;;;4973939;28;20423;-76
2022/05/27 14:12:55;;;;;;;1.70;0.90;;;;;;;;;;4973883;28;20035;-73
2022/05/27 14:15:28;;;;;;;3.55;0.70;;;;;;;;;;4974026;28;20014;-76
2022/05/27 14:17:55;;;;;;;1.10;0.88;;;;;;;;;;4973687;28;20043;-74
2022/05/27 14:20:25;;;;;;;1.42;0.88;;;;;;;;;;4974055;28;20033;-76
2022/05/27 14:22:53;;;;;;;3.80;1.00;;;;;;;;;;4973831;28;20031;-76
2022/05/27 14:25:41;;;;;;;4.03;1.00;;;;;;;;;;4973814;28;20503;-73
2022/05/27 14:28:26;;;;;;;1.77;0.82;;;;;;;;;;4973699;28;20022;-76
2022/05/27 14:30:53;;;;;;;3.08;0.98;;;;;;;;;;4973949;28;20039;-75
2022/05/27 14:33:33;;;;;;;2.03;0.60;;;;;;;;;;4973090;28;20034;-76
2022/05/27 14:36:05;;;;;;;4.18;0.93;;;;;;;;;;4973865;28;20499;-76
2022/05/27 14:38:35;;;;;;;1.98;0.80;;;;;;;;;;4970038;28;20031;-76
2022/05/27 14:41:03;;;;;;;1.60;0.65;;;;;;;;;;4969271;28;20023;-73
2022/05/27 14:43:39;;;;;;;0.88;0.52;;;;;;;;;;4969129;28;20384;-76
2022/05/27 14:46:16;;;;;;;6.28;0.90;;;;;;;;;;4968778;28;20399;-76
2022/05/27 14:48:43;;;;;;;2.40;0.63;;;;;;;;;;4968857;28;20035;-76
2022/05/27 14:51:14;;;;;;;10.77;0.93;;;;;;;;;;4972640;28;20035;-76
2022/05/27 14:53:41;;;;;;;3.60;0.70;;;;;;;;;;4970316;28;20045;-76
2022/05/27 14:56:07;;;;;;;1.00;0.57;;;;;;;;;;4968557;28;20030;-76
2022/05/27 14:58:36;;;;;;;1.00;0.60;;;;;;;;;;4968651;28;20041;-76
2022/05/27 15:01:03;;;;;;;2.95;0.70;;;;;;;;;;4968785;28;20492;-76
2022/05/27 15:03:41;;;;;;;1.38;0.75;;;;;;;;;;4969532;28;20523;-76
2022/05/27 15:06:09;;;;;;;1.42;0.80;;;;;;;;;;4957963;28;20033;-76
2022/05/27 15:08:35;;;;;;;2.63;0.60;;;;;;;;;;4970079;28;20026;-75
2022/05/27 15:11:04;;;;;;;2.22;0.90;;;;;;;;;;4968819;28;20035;-76
2022/05/27 15:13:32;;;;;;;1.98;0.77;;;;;;;;;;4970509;28;20045;-75
2022/05/27 15:16:17;;;;;;;1.70;0.70;;;;;;;;;;4973150;28;20048;-75
2022/05/27 15:18:49;;;;;;;4.93;1.00;;;;;;;;;;4972809;28;20047;-76
2022/05/27 15:21:21;;;;;;;3.30;0.82;;;;;;;;;;4973301;28;20029;-75
2022/05/27 15:23:53;;;;;;;2.15;0.70;;;;;;;;;;4972763;28;20432;-75
2022/05/27 15:34:43;;;;;;;1.73;0.80;;;;;;;;;;4972536;28;20030;-76
2022/05/27 15:37:09;;;;;;;3.33;0.90;;;;;;;;;;4972642;28;20025;-75
2022/05/27 15:39:36;;;;;;;2.33;0.80;;;;;;;;;;4972767;28;20499;-75
2022/05/27 15:42:04;;;;;;;1.85;0.68;;;;;;;;;;4972839;28;20035;-76
2022/05/27 15:44:31;;;;;;;1.83;0.65;;;;;;;;;;4973134;28;20037;-75
2022/05/27 15:46:57;;;;;;;6.32;1.10;;;;;;;;;;4972271;28;20043;-76
2022/05/27 15:49:24;;;;;;;4.07;0.80;;;;;;;;;;4972589;28;20027;-76